Time;durP1;ratioP1;P1;durP2;ratioP2;P2;SDS_P1;SDS_P2;PMS_P1;PMS_P2;Temp;Humidity;BMP_temperature;BMP_pressure;BME280_temperature;BME280_humidity;BME280_pressure;Samples;Min_cycle;Max_cycle;Signal;HPM_P1;HPM_P2
2022/06/10 00:00:29;;;;;;;20.77;6.80;;;;;;;11.66;100.00;101898.06;5047028;28;20028;-62
2022/06/10 00:02:55;;;;;;;23.08;7.00;;;;;;;11.71;100.00;101901.69;5043817;28;20087;-63
2022/06/10 00:05:24;;;;;;;22.33;7.30;;;;;;;11.75;100.00;101899.97;5046202;28;20029;-62
2022/06/10 00:07:51;;;;;;;20.55;6.70;;;;;;;11.90;100.00;101900.22;5044826;28;20107;-62
2022/06/10 00:10:19;;;;;;;19.45;6.10;;;;;;;11.86;100.00;101906.31;5045137;28;20086;-64
2022/06/10 00:12:45;;;;;;;21.30;6.00;;;;;;;11.81;100.00;101903.63;5044990;28;20036;-64
2022/06/10 00:15:11;;;;;;;21.35;6.57;;;;;;;11.84;100.00;101900.13;5044429;28;20025;-65
2022/06/10 00:17:36;;;;;;;20.35;6.20;;;;;;;11.81;100.00;101889.44;5045630;28;20132;-66
2022/06/10 00:20:03;;;;;;;18.92;5.90;;;;;;;11.74;100.00;101898.19;5043239;28;20026;-64
2022/06/10 00:22:29;;;;;;;21.38;6.45;;;;;;;11.69;100.00;101896.38;5039640;28;20032;-63
2022/06/10 00:24:54;;;;;;;19.42;6.20;;;;;;;11.64;100.00;101903.31;5046120;28;20107;-62
2022/06/10 00:27:20;;;;;;;20.77;6.65;;;;;;;11.82;100.00;101896.53;5044261;28;20420;-67
2022/06/10 00:29:47;;;;;;;20.98;6.60;;;;;;;11.85;100.00;101900.16;5044689;28;20183;-64
2022/06/10 00:32:13;;;;;;;20.08;6.57;;;;;;;11.96;100.00;101900.34;5045007;28;20098;-65
2022/06/10 00:34:38;;;;;;;22.15;7.18;;;;;;;12.03;100.00;101901.34;5043794;28;20468;-65
2022/06/10 00:37:05;;;;;;;21.67;6.90;;;;;;;12.03;100.00;101896.91;5045826;28;20089;-64
2022/06/10 00:39:31;;;;;;;19.52;6.60;;;;;;;12.04;100.00;101903.09;5042495;28;20108;-63
2022/06/10 00:41:58;;;;;;;21.70;7.25;;;;;;;12.14;100.00;101901.47;5046028;28;20025;-62
2022/06/10 00:44:36;;;;;;;21.30;6.90;;;;;;;12.11;100.00;101893.50;5043487;28;20029;-63
2022/06/10 00:47:11;;;;;;;21.05;7.00;;;;;;;12.16;100.00;101898.00;5039340;28;20067;-62
2022/06/10 00:49:38;;;;;;;20.70;6.60;;;;;;;12.13;100.00;101892.66;5039862;28;20483;-63
2022/06/10 00:52:03;;;;;;;21.30;7.13;;;;;;;12.18;100.00;101892.72;5046335;28;20021;-63
2022/06/10 00:54:39;;;;;;;22.55;6.95;;;;;;;12.21;100.00;101890.97;5041106;28;20037;-63
2022/06/10 00:57:11;;;;;;;20.30;6.38;;;;;;;12.32;100.00;101892.88;5039443;28;20025;-63
2022/06/10 00:59:51;;;;;;;21.40;6.10;;;;;;;12.44;100.00;101890.41;5045179;28;20044;-63
2022/06/10 01:02:22;;;;;;;21.10;6.60;;;;;;;12.49;100.00;101885.16;5044320;28;20048;-64
2022/06/10 01:04:48;;;;;;;20.65;6.60;;;;;;;12.54;100.00;101888.78;5043792;28;20551;-63
2022/06/10 01:07:17;;;;;;;22.75;6.60;;;;;;;12.55;100.00;101882.59;5043580;28;20078;-63
2022/06/10 01:09:44;;;;;;;20.60;6.50;;;;;;;12.60;100.00;101886.19;5044121;28;20486;-63
2022/06/10 01:12:32;;;;;;;19.08;5.70;;;;;;;12.65;100.00;101894.22;5042106;28;20018;-63
2022/06/10 01:15:03;;;;;;;21.60;6.22;;;;;;;12.65;100.00;101894.22;5042253;28;20087;-63
2022/06/10 01:17:56;;;;;;;21.57;6.13;;;;;;;12.66;100.00;101896.00;5038201;28;20029;-63
2022/06/10 01:20:39;;;;;;;18.48;5.43;;;;;;;12.64;100.00;101893.34;5043690;28;20252;-63
2022/06/10 01:23:23;;;;;;;19.33;5.60;;;;;;;12.62;100.00;101888.88;5039259;28;20025;-63
2022/06/10 01:26:03;;;;;;;21.35;5.80;;;;;;;12.62;100.00;101891.53;5043311;28;20021;-64
2022/06/10 01:28:53;;;;;;;20.67;5.93;;;;;;;12.62;100.00;101891.53;5037145;28;20029;-63
2022/06/10 01:31:22;;;;;;;21.50;5.70;;;;;;;12.66;100.00;101893.34;5042732;28;20033;-64
2022/06/10 01:34:19;;;;;;;19.45;5.50;;;;;;;12.68;100.00;101896.91;5041930;28;20039;-63
2022/06/10 01:36:52;;;;;;;20.23;5.78;;;;;;;12.72;100.00;101893.41;5041224;28;20053;-64
2022/06/10 01:39:36;;;;;;;19.42;5.20;;;;;;;12.71;100.00;101892.53;5042963;28;20070;-63
2022/06/10 01:42:04;;;;;;;21.88;6.00;;;;;;;12.77;100.00;101896.13;5038090;28;20349;-62
2022/06/10 01:44:50;;;;;;;18.70;5.00;;;;;;;12.77;100.00;101888.16;5037829;28;20026;-63
2022/06/10 01:47:42;;;;;;;19.92;5.30;;;;;;;12.80;100.00;101893.50;5041491;28;20021;-62
2022/06/10 01:50:23;;;;;;;20.80;5.38;;;;;;;12.84;100.00;101898.88;5039141;28;20025;-63
2022/06/10 01:52:56;;;;;;;18.83;5.10;;;;;;;12.86;100.00;101897.13;5042766;28;20018;-63
2022/06/10 01:55:25;;;;;;;;;;;;;;;12.90;100.00;101891.00;5044281;28;20483;-62
2022/06/10 01:58:07;;;;;;;19.23;5.10;;;;;;;12.89;100.00;101894.50;5042449;28;20023;-62
2022/06/10 02:00:35;;;;;;;20.80;5.35;;;;;;;12.92;100.00;101891.00;5037574;28;20049;-62
2022/06/10 02:03:23;;;;;;;19.40;4.88;;;;;;;12.93;100.00;101886.56;5037330;28;20492;-63
2022/06/10 02:05:56;;;;;;;19.65;4.82;;;;;;;12.94;100.00;101896.31;5041929;28;20072;-65
2022/06/10 02:08:38;;;;;;;19.85;5.20;;;;;;;12.95;100.00;101900.78;5042376;28;20376;-64
2022/06/10 02:11:09;;;;;;;20.10;4.93;;;;;;;12.94;100.00;101899.88;5037971;28;20502;-66
2022/06/10 02:13:44;;;;;;;19.30;5.03;;;;;;;12.95;100.00;101899.00;5038051;28;20468;-64
2022/06/10 02:16:18;;;;;;;20.30;5.25;;;;;;;12.95;100.00;101893.69;5043966;28;20075;-65
2022/06/10 02:19:14;;;;;;;20.90;5.13;;;;;;;12.96;100.00;101898.13;5057513;28;20383;-64
2022/06/10 02:21:44;;;;;;;20.50;4.88;;;;;;;12.96;100.00;101897.22;5017402;28;20583;-64
2022/06/10 02:24:21;;;;;;;19.98;4.75;;;;;;;12.97;100.00;101893.72;5021414;28;20039;-64
2022/06/10 02:26:49;;;;;;;19.50;4.78;;;;;;;12.99;100.00;101889.28;5020589;28;20062;-64
2022/06/10 02:29:19;;;;;;;21.35;4.78;;;;;;;13.01;100.00;101891.09;5021128;28;20032;-64
2022/06/10 02:31:50;;;;;;;18.58;4.65;;;;;;;13.09;100.00;101904.44;5020441;28;20029;-64
2022/06/10 02:34:15;;;;;;;20.67;4.78;;;;;;;13.16;100.00;101900.97;5020735;28;20083;-63
2022/06/10 02:36:49;;;;;;;20.50;4.75;;;;;;;13.24;100.00;101911.69;5019491;28;20136;-64
2022/06/10 02:39:37;;;;;;;20.90;4.47;;;;;;;13.28;100.00;101909.94;5020702;28;20042;-64
2022/06/10 02:42:15;;;;;;;19.50;4.50;;;;;;;13.30;100.00;101916.19;5029067;28;20129;-64
2022/06/10 02:45:07;;;;;;;19.25;4.38;;;;;;;13.30;100.00;101913.53;5026475;28;20029;-64
2022/06/10 02:47:57;;;;;;;18.38;4.50;;;;;;;13.32;100.00;101912.66;5025575;28;20502;-64
2022/06/10 02:50:23;;;;;;;20.48;4.65;;;;;;;13.31;100.00;101918.84;5028055;28;20112;-64
2022/06/10 02:52:49;;;;;;;19.98;4.60;;;;;;;13.29;100.00;101919.72;5026944;28;20124;-66
2022/06/10 02:55:19;;;;;;;18.65;4.82;;;;;;;13.28;100.00;101915.25;5026720;28;20026;-63
2022/06/10 03:01:42;;;;;;;20.20;4.53;;;;;;;13.31;100.00;101910.88;5050855;28;20067;-64
2022/06/10 03:04:29;;;;;;;19.67;4.50;;;;;;;13.32;100.00;101911.78;4969591;28;20125;-63
2022/06/10 03:07:07;;;;;;;20.55;4.55;;;;;;;13.32;100.00;101914.44;4969234;28;20409;-63
2022/06/10 03:09:49;;;;;;;21.30;4.70;;;;;;;13.33;100.00;101917.09;4966793;28;20050;-63
2022/06/10 03:12:17;;;;;;;20.13;4.78;;;;;;;13.32;100.00;101917.06;4968044;28;20123;-63
2022/06/10 03:15:11;;;;;;;19.58;4.53;;;;;;;13.32;100.00;101917.06;4968642;28;20022;-63
2022/06/10 03:18:15;;;;;;;20.27;4.70;;;;;;;13.32;100.00;101923.28;4969636;28;20167;-65
2022/06/10 03:20:57;;;;;;;18.42;4.70;;;;;;;13.33;100.00;101919.75;4939109;29;20434;-63
2022/06/10 03:23:30;;;;;;;19.05;5.03;;;;;;;13.34;100.00;101928.59;4939499;29;20028;-63
2022/06/10 03:26:04;;;;;;;19.98;4.70;;;;;;;13.34;100.00;101933.91;4923400;29;20043;-62
2022/06/10 03:28:38;;;;;;;18.83;4.60;;;;;;;13.34;100.00;101928.59;4939144;29;20118;-63
2022/06/10 03:31:12;;;;;;;20.20;4.70;;;;;;;13.32;100.00;101933.88;4935621;29;20051;-63
2022/06/10 03:33:44;;;;;;;20.23;4.70;;;;;;;13.30;100.00;101934.78;4930993;29;20048;-63
2022/06/10 03:36:13;;;;;;;21.80;4.57;;;;;;;13.31;100.00;101941.84;4911673;29;20465;-62
2022/06/10 03:38:42;;;;;;;20.27;4.78;;;;;;;13.31;100.00;101936.53;4968750;28;20321;-63
2022/06/10 03:41:16;;;;;;;21.10;4.75;;;;;;;13.30;100.00;101938.31;4985832;28;20121;-63
2022/06/10 03:43:42;;;;;;;19.15;4.50;;;;;;;13.30;100.00;101940.09;4987894;28;20065;-63
2022/06/10 03:46:11;;;;;;;17.50;4.35;;;;;;;13.23;100.00;101925.84;4986114;28;20113;-63
2022/06/10 03:48:39;;;;;;;18.48;4.50;;;;;;;13.16;100.00;101926.66;4988694;28;20129;-65
2022/06/10 03:51:07;;;;;;;19.50;4.80;;;;;;;13.14;100.00;101921.31;4984960;28;20038;-62
2022/06/10 03:53:32;;;;;;;21.08;5.22;;;;;;;13.17;100.00;101921.34;4985502;28;20441;-63
2022/06/10 03:55:57;;;;;;;18.38;4.82;;;;;;;13.21;100.00;101931.13;4984872;28;20058;-63
2022/06/10 03:58:23;;;;;;;19.55;4.60;;;;;;;13.23;100.00;101937.34;5044791;28;20112;-63
2022/06/10 04:00:48;;;;;;;21.00;5.00;;;;;;;13.27;100.00;101935.63;5045404;28;20115;-63
2022/06/10 04:03:14;;;;;;;21.00;4.75;;;;;;;13.31;100.00;101933.88;5044598;28;20489;-63
2022/06/10 04:05:40;;;;;;;20.15;4.70;;;;;;;13.33;100.00;101937.47;5046442;28;20036;-63
2022/06/10 04:08:06;;;;;;;20.52;4.60;;;;;;;13.37;100.00;101936.66;5043622;28;20437;-64
2022/06/10 04:10:31;;;;;;;20.15;4.93;;;;;;;13.41;100.00;101939.34;5039339;28;20021;-65
2022/06/10 04:12:57;;;;;;;19.42;4.60;;;;;;;13.44;100.00;101943.81;5046442;28;20039;-66
2022/06/10 04:15:27;;;;;;;19.52;4.10;;;;;;;13.42;100.00;101946.41;5044262;28;20025;-64
2022/06/10 04:17:54;;;;;;;19.80;4.53;;;;;;;13.21;100.00;101951.50;5045548;28;20079;-65
2022/06/10 04:20:29;;;;;;;18.45;4.60;;;;;;;13.16;100.00;101953.19;5044753;28;20472;-63
2022/06/10 04:22:55;;;;;;;20.90;4.82;;;;;;;13.21;100.00;101947.06;5045955;28;20021;-69
2022/06/10 04:25:20;;;;;;;19.02;4.35;;;;;;;13.20;100.00;101947.94;5044439;28;20028;-63
2022/06/10 04:27:46;;;;;;;20.80;4.60;;;;;;;13.22;100.00;101963.88;5044575;28;20037;-63
2022/06/10 04:30:28;;;;;;;19.40;4.30;;;;;;;13.29;100.00;101956.88;5045525;28;20029;-63
2022/06/10 04:32:54;;;;;;;19.65;4.60;;;;;;;13.39;100.00;101962.31;5045707;28;20087;-66
2022/06/10 04:35:19;;;;;;;22.77;4.97;;;;;;;13.47;100.00;101959.78;5044164;28;20484;-63
2022/06/10 04:37:45;;;;;;;20.60;4.57;;;;;;;13.51;100.00;101956.25;5043918;28;20021;-63
2022/06/10 04:40:14;;;;;;;20.23;4.32;;;;;;;13.60;100.00;101951.03;5045874;28;20075;-63
2022/06/10 04:42:40;;;;;;;19.02;4.50;;;;;;;13.68;100.00;101951.09;5043163;28;20605;-63
2022/06/10 04:45:07;;;;;;;18.30;4.30;;;;;;;13.72;100.00;101957.34;5045013;28;20388;-64
2022/06/10 04:47:32;;;;;;;17.98;4.28;;;;;;;13.68;100.00;101950.22;5042729;28;20090;-63
2022/06/10 04:49:59;;;;;;;19.88;4.63;;;;;;;13.69;100.00;101957.28;5045551;28;20471;-65
2022/06/10 04:52:26;;;;;;;19.42;4.30;;;;;;;13.75;100.00;101960.91;5043369;28;20155;-65
2022/06/10 04:54:51;;;;;;;18.85;4.38;;;;;;;13.78;100.00;101958.28;5044881;28;20033;-63
2022/06/10 04:57:17;;;;;;;17.92;4.20;;;;;;;13.81;100.00;101960.06;5044179;28;20028;-64
2022/06/10 04:59:42;;;;;;;19.65;4.45;;;;;;;13.82;100.00;101959.22;5043155;28;20496;-63
2022/06/10 05:02:07;;;;;;;17.83;4.70;;;;;;;13.85;100.00;101956.56;5046031;28;20484;-62
2022/06/10 05:04:33;;;;;;;19.00;4.55;;;;;;;13.89;100.00;101952.16;5041272;28;20476;-63
2022/06/10 05:06:58;;;;;;;18.63;4.20;;;;;;;13.94;100.00;101948.66;5045403;28;20025;-64
2022/06/10 05:09:23;;;;;;;19.40;4.47;;;;;;;13.96;100.00;101948.66;5043694;28;20025;-65
2022/06/10 05:11:49;;;;;;;20.35;4.40;;;;;;;13.99;100.00;101951.34;5043802;28;20064;-63
2022/06/10 05:14:14;;;;;;;20.70;5.05;;;;;;;14.03;100.00;101953.16;5044458;28;20029;-63
2022/06/10 05:16:39;;;;;;;20.23;4.60;;;;;;;14.10;100.00;101956.78;5042475;28;20432;-63
2022/06/10 05:19:05;;;;;;;19.92;4.55;;;;;;;14.14;100.00;101953.25;5045652;28;20102;-64
2022/06/10 05:21:30;;;;;;;19.45;4.40;;;;;;;14.13;100.00;101948.81;5040985;28;20382;-63
2022/06/10 05:23:55;;;;;;;19.33;4.50;;;;;;;14.07;100.00;101947.00;5044583;28;20062;-63
2022/06/10 05:26:21;;;;;;;21.30;4.70;;;;;;;14.04;100.00;101940.78;5041900;28;20087;-63
2022/06/10 05:28:49;;;;;;;20.77;4.68;;;;;;;14.07;100.00;101936.34;5043237;28;20037;-64
2022/06/10 05:31:14;;;;;;;20.58;4.60;;;;;;;14.18;100.00;101941.75;5043923;28;20442;-63
2022/06/10 05:36:24;;;;;;;20.17;4.32;;;;;;;14.44;100.00;101941.03;5042607;28;20051;-63
2022/06/10 05:38:49;;;;;;;19.92;4.30;;;;;;;14.56;100.00;101946.44;5043407;28;20033;-63
2022/06/10 05:43:59;;;;;;;19.83;4.30;;;;;;;14.74;100.00;101944.78;5044925;28;20047;-64
2022/06/10 05:46:24;;;;;;;20.90;4.30;;;;;;;14.80;100.00;101948.31;5042409;28;20025;-64
2022/06/10 05:48:49;;;;;;;19.58;4.47;;;;;;;14.86;100.00;101952.78;5043428;28;20041;-64
2022/06/10 05:51:14;;;;;;;19.45;4.15;;;;;;;14.93;100.00;101941.28;5036853;28;20033;-65
2022/06/10 05:53:40;;;;;;;18.50;3.97;;;;;;;15.01;100.00;101945.75;5045323;28;20043;-64
2022/06/10 05:56:05;;;;;;;18.38;4.13;;;;;;;15.10;100.00;101948.44;5040853;28;20115;-66
2022/06/10 05:58:31;;;;;;;20.08;3.88;;;;;;;15.18;100.00;101948.47;5043076;28;20071;-65
2022/06/10 06:00:56;;;;;;;20.55;4.20;;;;;;;15.26;100.00;101952.03;5046064;28;20065;-65
2022/06/10 06:03:23;;;;;;;16.20;3.90;;;;;;;15.27;100.00;101944.03;5036019;28;20017;-66
2022/06/10 06:05:49;;;;;;;16.90;3.70;;;;;;;15.37;100.00;101944.06;5040970;28;20472;-65
2022/06/10 06:08:14;;;;;;;16.13;3.63;;;;;;;15.49;100.00;101950.31;5045170;28;20024;-67
2022/06/10 06:10:40;;;;;;;18.33;3.65;;;;;;;15.51;100.00;101945.88;5044678;28;20025;-70
2022/06/10 06:13:05;;;;;;;18.77;3.70;;;;;;;15.53;100.00;101951.19;5036180;28;20494;-71
2022/06/10 06:15:30;;;;;;;15.55;3.40;;;;;;;15.57;100.00;101953.00;5042545;28;20055;-71
2022/06/10 06:17:56;;;;;;;17.13;3.70;;;;;;;15.58;100.00;101952.09;5043199;28;20033;-71
2022/06/10 06:20:23;;;;;;;18.58;4.05;;;;;;;15.68;100.00;101951.22;5042083;28;20029;-74
2022/06/10 06:22:49;;;;;;;16.08;3.50;;;;;;;15.74;100.00;101957.44;5043033;28;20391;-71
2022/06/10 06:25:16;;;;;;;16.75;3.38;;;;;;;15.77;100.00;101963.66;5043051;28;20017;-70
2022/06/10 06:27:43;;;;;;;16.05;3.38;;;;;;;15.77;100.00;101966.34;5040342;28;20392;-76
2022/06/10 06:30:26;;;;;;;18.50;3.97;;;;;;;15.77;100.00;101968.09;5040706;28;20076;-74
2022/06/10 06:32:52;;;;;;;16.42;3.40;;;;;;;15.76;100.00;101963.69;5044913;28;20475;-72
2022/06/10 06:35:17;;;;;;;16.20;3.33;;;;;;;15.82;100.00;101971.69;5040220;28;20069;-69
2022/06/10 06:37:43;;;;;;;17.42;3.45;;;;;;;15.85;100.00;101969.03;5043355;28;20119;-73
2022/06/10 06:40:10;;;;;;;16.73;3.38;;;;;;;15.86;100.00;101968.16;5042640;28;20043;-72
2022/06/10 06:42:36;;;;;;;16.38;3.42;;;;;;;15.90;100.00;101977.03;5042926;28;20036;-70
2022/06/10 06:45:02;;;;;;;17.13;3.72;;;;;;;15.91;100.00;101981.47;5039667;28;20021;-70
2022/06/10 06:47:27;;;;;;;17.58;3.30;;;;;;;15.92;100.00;101977.94;5040323;28;20059;-75
2022/06/10 06:49:53;;;;;;;17.38;3.55;;;;;;;15.93;100.00;101979.69;5044503;28;20472;-72
2022/06/10 06:52:18;;;;;;;17.55;3.83;;;;;;;15.98;100.00;101977.94;5042729;28;20110;-71
2022/06/10 06:54:43;;;;;;;16.42;3.20;;;;;;;15.98;100.00;101978.81;5042315;28;20392;-73
2022/06/10 06:57:09;;;;;;;15.90;3.17;;;;;;;16.01;100.00;101976.13;5041207;28;20025;-76
2022/06/10 06:59:34;;;;;;;15.60;3.20;;;;;;;16.07;100.00;101982.38;5042590;28;20035;-71
2022/06/10 07:02:00;;;;;;;17.35;3.47;;;;;;;16.14;100.00;101976.13;5043027;28;20029;-74
2022/06/10 07:04:26;;;;;;;18.80;3.63;;;;;;;16.25;100.00;101990.38;5040666;28;20400;-72
2022/06/10 07:06:51;;;;;;;18.23;3.40;;;;;;;16.32;100.00;101980.56;5035063;28;20036;-81
2022/06/10 07:09:16;;;;;;;15.77;3.22;;;;;;;16.36;100.00;101983.22;5040821;28;20552;-72
2022/06/10 07:11:42;;;;;;;15.93;3.58;;;;;;;16.41;100.00;101976.97;5040043;28;20083;-73
2022/06/10 07:14:07;;;;;;;16.27;3.47;;;;;;;16.46;100.00;101973.41;5040644;28;20013;-74
2022/06/10 07:16:33;;;;;;;16.25;3.53;;;;;;;16.58;100.00;101977.84;5040874;28;20023;-70
2022/06/10 07:18:58;;;;;;;18.45;3.33;;;;;;;16.66;100.00;101978.72;5040585;28;20091;-70
2022/06/10 07:21:23;;;;;;;16.52;3.25;;;;;;;16.71;100.00;101974.22;5040571;28;20025;-78
2022/06/10 07:23:49;;;;;;;16.40;3.40;;;;;;;16.83;100.00;101972.41;5041449;28;20109;-76
2022/06/10 07:26:15;;;;;;;16.45;3.28;;;;;;;16.93;100.00;101981.31;5037888;28;20060;-72
2022/06/10 07:28:41;;;;;;;17.00;3.60;;;;;;;17.05;100.00;101986.59;5046097;28;20030;-71
2022/06/10 07:31:06;;;;;;;15.70;3.20;;;;;;;17.06;100.00;101991.94;5044780;28;20519;-69
2022/06/10 07:33:34;;;;;;;14.00;3.00;;;;;;;17.03;100.00;101988.41;5037589;28;20037;-70
2022/06/10 07:35:59;;;;;;;15.50;3.38;;;;;;;16.95;100.00;101988.44;5043853;28;20807;-71
2022/06/10 07:38:25;;;;;;;13.73;3.28;;;;;;;16.96;100.00;101991.97;5044375;28;20033;-70
2022/06/10 07:43:35;;;;;;;15.77;3.63;;;;;;;16.91;100.00;101984.00;5040487;28;20086;-70
2022/06/10 07:46:02;;;;;;;13.32;3.30;;;;;;;16.91;100.00;101984.00;5045873;28;20024;-70
2022/06/10 07:48:27;;;;;;;15.85;3.40;;;;;;;16.88;100.00;101984.00;5044908;28;20033;-69
2022/06/10 07:50:52;;;;;;;15.65;3.22;;;;;;;16.88;100.00;101984.00;5044561;28;20037;-70
2022/06/10 07:53:18;;;;;;;14.48;3.10;;;;;;;16.91;100.00;101981.31;5043699;28;20468;-70
2022/06/10 07:55:44;;;;;;;14.70;3.15;;;;;;;16.98;100.00;101979.50;5043783;28;20030;-72
2022/06/10 07:58:11;;;;;;;14.27;3.38;;;;;;;17.13;100.00;101984.78;5046184;28;20083;-64
2022/06/10 08:00:36;;;;;;;16.25;3.40;;;;;;;17.35;100.00;101979.34;5043065;28;20025;-65
2022/06/10 08:03:03;;;;;;;15.85;2.97;;;;;;;17.58;100.00;101977.38;5048291;28;20480;-64
2022/06/10 08:05:28;;;;;;;11.85;2.85;;;;;;;17.69;100.00;101980.00;5042814;28;20029;-64
2022/06/10 08:07:54;;;;;;;12.80;3.00;;;;;;;17.78;100.00;101990.63;5044428;28;20662;-64
2022/06/10 08:10:32;;;;;;;11.55;2.70;;;;;;;17.87;100.00;101988.78;5046748;28;20033;-64
2022/06/10 08:12:58;;;;;;;14.50;3.10;;;;;;;17.99;100.00;101996.72;5044868;28;20026;-64
2022/06/10 08:15:24;;;;;;;15.10;3.33;;;;;;;18.13;100.00;101991.28;5045862;28;20021;-64
2022/06/10 08:17:50;;;;;;;13.10;3.00;;;;;;;18.36;100.00;101998.19;5043602;28;20032;-65
2022/06/10 08:23:15;;;;;;;15.00;2.90;;;;;;;18.35;100.00;101986.59;5046818;28;20484;-65
2022/06/10 08:25:41;;;;;;;19.48;3.55;;;;;;;18.37;100.00;101994.59;5043437;28;20029;-64
2022/06/10 08:28:07;;;;;;;16.15;2.90;;;;;;;18.25;100.00;101985.78;5039392;28;20041;-69
2022/06/10 08:30:34;;;;;;;15.13;3.10;;;;;;;18.23;100.00;101992.97;5042735;28;20473;-76
2022/06/10 08:33:03;;;;;;;16.35;3.13;;;;;;;18.10;100.00;101999.28;5044533;28;20389;-74
2022/06/10 08:35:29;;;;;;;15.80;3.00;;;;;;;18.06;100.00;101993.09;5046422;28;20167;-72
2022/06/10 08:37:55;;;;;;;19.65;3.47;;;;;;;18.07;100.00;101996.66;5041714;28;20052;-70
2022/06/10 08:40:39;;;;;;;17.42;3.72;;;;;;;18.07;100.00;101996.66;5045773;28;20202;-71
2022/06/10 08:43:27;;;;;;;17.83;3.47;;;;;;;18.18;100.00;101999.25;5038142;28;20488;-70
2022/06/10 08:46:15;;;;;;;21.85;3.63;;;;;;;18.16;100.00;101990.34;5038364;28;20052;-69
2022/06/10 08:48:58;;;;;;;20.83;4.35;;;;;;;18.39;100.00;101980.31;5003899;28;20033;-69
2022/06/10 08:52:02;;;;;;;18.40;3.70;;;;;;;18.66;100.00;101975.56;5020236;28;20132;-73
2022/06/10 08:54:35;;;;;;;18.77;3.60;;;;;;;18.71;100.00;101978.16;5019392;28;20042;-73
2022/06/10 08:57:06;;;;;;;17.42;3.55;;;;;;;18.77;100.00;101980.75;5034238;28;20125;-74
2022/06/10 08:59:40;;;;;;;16.52;3.42;;;;;;;18.81;100.00;101969.13;5019563;28;20162;-70
2022/06/10 09:02:23;;;;;;;19.35;3.80;;;;;;;18.87;100.00;101978.91;5012321;28;20030;-69
2022/06/10 09:04:59;;;;;;;19.13;4.10;;;;;;;19.01;100.00;101968.91;4996244;28;20535;-71
2022/06/10 09:07:30;;;;;;;15.80;3.50;;;;;;;19.32;100.00;101971.16;5019025;28;20034;-67
2022/06/10 09:09:58;;;;;;;19.55;3.72;;;;;;;19.35;100.00;101973.78;5022790;28;20041;-64
2022/06/10 09:12:47;;;;;;;16.65;3.72;;;;;;;19.41;100.00;101984.44;5021790;28;20033;-65
2022/06/10 09:15:15;;;;;;;18.27;3.80;;;;;;;19.32;100.00;101985.47;5018241;28;20041;-66
2022/06/10 09:17:46;;;;;;;18.67;3.75;;;;;;;19.39;100.00;101980.88;5023086;28;20044;-65
2022/06/10 09:20:23;;;;;;;17.60;3.58;;;;;;;19.65;100.00;101979.63;5022654;28;20029;-63
2022/06/10 09:22:57;;;;;;;15.63;3.80;;;;;;;19.76;100.00;101983.03;5030972;28;20088;-65
2022/06/10 09:25:34;;;;;;;18.10;4.00;;;;;;;19.73;100.00;101983.06;5041362;28;20025;-65
2022/06/10 09:28:00;;;;;;;17.40;4.00;;;;;;;19.98;100.00;101977.31;5043470;28;20029;-64
2022/06/10 09:30:57;;;;;;;17.60;4.20;;;;;;;20.26;100.00;101993.84;5043145;28;20116;-64
2022/06/10 09:33:37;;;;;;;19.55;4.10;;;;;;;20.45;99.25;101991.69;5041674;28;20419;-66
2022/06/10 09:36:25;;;;;;;17.75;3.83;;;;;;;20.64;97.43;101985.97;5039909;28;20116;-64
2022/06/10 09:39:07;;;;;;;19.65;4.60;;;;;;;20.95;93.98;101997.00;5043621;28;20041;-66
2022/06/10 09:41:57;;;;;;;18.15;3.67;;;;;;;21.13;94.58;101986.78;5038970;28;20130;-65
2022/06/10 09:44:35;;;;;;;15.80;3.88;;;;;;;20.86;95.34;101989.13;5037447;28;20153;-65
2022/06/10 09:47:37;;;;;;;18.05;4.18;;;;;;;20.80;96.68;101983.91;5041378;28;20439;-70
2022/06/10 09:50:08;;;;;;;;;;;;;;;20.81;98.00;101991.94;5028037;28;20128;-65
2022/06/10 09:52:55;;;;;;;18.30;4.18;;;;;;;20.61;93.76;102000.34;5031522;28;19917;-64
2022/06/10 09:55:45;;;;;;;19.42;4.00;;;;;;;20.76;94.74;101995.63;5031857;28;20034;-64
2022/06/10 09:58:30;;;;;;;18.85;4.18;;;;;;;20.89;96.01;101987.25;5027072;28;20033;-64
2022/06/10 10:01:01;;;;;;;17.17;4.65;;;;;;;21.15;92.76;101980.44;5030092;28;20033;-69
2022/06/10 10:04:14;;;;;;;18.38;4.07;;;;;;;21.80;95.65;101978.09;5031215;28;20037;-66
2022/06/10 10:06:52;;;;;;;17.65;3.92;;;;;;;22.68;89.81;101987.47;4950545;29;20035;-65
2022/06/10 10:09:51;;;;;;;18.77;4.22;;;;;;;22.32;89.20;101987.53;4949653;29;20064;-64
2022/06/10 10:12:30;;;;;;;19.05;4.28;;;;;;;22.60;87.17;101985.00;4949621;29;20042;-65
2022/06/10 10:15:13;;;;;;;18.10;4.78;;;;;;;22.54;84.06;101987.88;4950552;29;20031;-65
2022/06/10 10:18:08;;;;;;;19.33;4.72;;;;;;;22.56;86.48;101988.69;4952771;29;20077;-65
2022/06/10 10:21:00;;;;;;;19.67;5.03;;;;;;;22.00;88.90;101993.75;4952616;28;20043;-64
2022/06/10 10:23:34;;;;;;;18.45;4.50;;;;;;;21.54;91.24;101985.00;4950070;29;20039;-67
2022/06/10 10:26:03;;;;;;;20.98;4.68;;;;;;;21.96;95.10;101979.50;4952294;29;20042;-66
2022/06/10 10:28:33;;;;;;;17.65;4.35;;;;;;;22.16;85.39;101991.53;4945037;28;20031;-66
2022/06/10 10:31:12;;;;;;;19.35;4.72;;;;;;;22.49;86.27;101973.63;4952139;28;20041;-67
2022/06/10 10:33:37;;;;;;;19.35;4.85;;;;;;;22.69;84.98;101978.47;4952509;29;20043;-66
2022/06/10 10:36:12;;;;;;;17.55;4.70;;;;;;;23.75;77.74;101986.94;4952446;28;20552;-66
2022/06/10 10:38:41;;;;;;;17.55;4.53;;;;;;;24.44;75.28;101976.47;4952423;29;20047;-64
2022/06/10 10:41:34;;;;;;;19.40;4.60;;;;;;;24.59;75.17;101975.06;4952334;28;20126;-64
2022/06/10 10:44:05;;;;;;;19.55;4.65;;;;;;;24.57;71.83;101968.81;5039307;28;20048;-64
2022/06/10 10:46:56;;;;;;;20.25;5.15;;;;;;;24.22;74.40;101962.88;5043198;28;20426;-64
2022/06/10 10:49:24;;;;;;;20.98;5.53;;;;;;;24.74;71.28;101967.31;5040983;28;20384;-63
2022/06/10 10:51:51;;;;;;;20.75;4.72;;;;;;;23.83;74.87;101971.38;5037218;28;20026;-68
2022/06/10 10:54:16;;;;;;;21.90;5.22;;;;;;;23.12;78.44;101977.19;5044193;28;20110;-65
2022/06/10 10:56:43;;;;;;;18.92;4.60;;;;;;;22.40;82.71;101964.00;5041620;28;20052;-65
2022/06/10 10:59:25;;;;;;;19.98;5.00;;;;;;;22.11;85.58;101973.69;5042878;28;20064;-65
2022/06/10 11:01:51;;;;;;;18.67;5.18;;;;;;;22.24;85.46;101966.19;5039270;28;20029;-65
2022/06/10 11:04:38;;;;;;;20.00;5.03;;;;;;;22.58;84.85;101973.34;5047945;28;20148;-65
2022/06/10 11:07:15;;;;;;;20.23;5.22;;;;;;;22.25;87.08;101977.81;5044068;28;20037;-66
2022/06/10 11:09:50;;;;;;;20.73;5.20;;;;;;;22.20;85.46;101969.88;5045420;28;20032;-68
2022/06/10 11:12:20;;;;;;;19.80;5.20;;;;;;;21.90;86.54;101969.75;5047786;28;20033;-63
2022/06/10 11:15:12;;;;;;;19.98;5.55;;;;;;;22.24;87.95;101965.31;5044821;28;20377;-64
2022/06/10 11:17:42;;;;;;;20.40;5.80;;;;;;;22.89;82.28;101967.09;5044917;28;20554;-63
2022/06/10 11:20:14;;;;;;;20.50;5.13;;;;;;;23.03;83.70;101976.59;5045541;28;20037;-64
2022/06/10 11:22:39;;;;;;;18.15;4.50;;;;;;;23.02;81.64;101974.81;5039441;28;20037;-70
2022/06/10 11:25:16;;;;;;;17.15;4.60;;;;;;;23.51;77.49;101973.31;5037332;28;20026;-69
2022/06/10 11:27:58;;;;;;;19.50;5.20;;;;;;;23.19;81.82;101975.22;5034866;28;20040;-72
2022/06/10 11:30:33;;;;;;;21.30;4.80;;;;;;;22.67;83.74;101963.25;5035686;28;20032;-74
2022/06/10 11:33:05;;;;;;;19.40;5.10;;;;;;;22.43;87.62;101961.22;5033681;28;20029;-71
2022/06/10 11:35:35;;;;;;;18.23;5.13;;;;;;;23.64;80.97;101965.72;5035528;28;20037;-71
2022/06/10 11:38:05;;;;;;;21.38;4.90;;;;;;;24.23;76.29;101964.59;5036108;28;20029;-70
2022/06/10 11:40:53;;;;;;;18.23;4.75;;;;;;;24.09;78.21;101965.13;5035271;28;20041;-76
2022/06/10 11:43:42;;;;;;;19.02;4.85;;;;;;;24.69;75.06;101957.56;5036855;28;20029;-71
2022/06/10 11:46:46;;;;;;;17.75;4.20;;;;;;;26.51;71.55;101953.78;5033916;28;20025;-71
2022/06/10 11:49:27;;;;;;;16.25;4.30;;;;;;;26.91;62.36;101968.22;5033861;28;20461;-74